Jaipur, India

1:33 AM IST on December 19, 2014 (GMT +0530)
Jaipur | Change Station
CLOSE
Current Station
Airport
Location: Jaipur,
Elevation: 1280 ft
Nearby Weather Stations

Elev 1280 ft 26.82 °N, 75.81 °E | Updated 33 minutes ago

Haze
Haze
52 °F
Feels Like 52 °F
N
1
Wind Variable Wind from Variable

Today
High -- | Low -- °F
--% Chance of Precip.
Yesterday
High -- | Low -- °F
Precip. -- in
7:10 AM 5:37 PM
Waning Crescent, 12% visible
Pressure 30.18 in
Visibility 0.9 miles
Clouds Scattered Clouds 10000 ft
Dew Point 45 °F
Humidity 76%
Rainfall 0.00 in
Snow Depth Not available.
UV 0 out of 12
Pollen Not available.
Air Quality Not available.
Flu Activity Not available.
METAR VIJP 181930Z VRB01KT 1500 R27/P2000N HZ SCT100 11/07 Q1022 NOSIG

More Conditions Fewer Conditions

Pressure 30.18 in
Visibility 0.9 miles
Clouds Scattered Clouds 10000 ft
Dew Point 45 °F
Humidity 76%
Rainfall 0.00 in
Snow Depth Not available.
UV 0 out of 12
Pollen Not available.
Air Quality Not available.
Flu Activity Not available.
METAR VIJP 181930Z VRB01KT 1500 R27/P2000N HZ SCT100 11/07 Q1022 NOSIG

More Conditions Fewer Conditions

10-Day Weather Forecast

Almanac

Astronomy

Dec. 19, 2014 Rise Set
Actual Time
Civil Twilight
Nautical Twilight
Astronomical Twilight
Moon
Length of Visible Light
Length of Day
Tomorrow will be .
, % of the Moon is Illuminated

Today's Extremes

Country Highs Country Lows

Community

WunderPhotos

Upload Photos

1,778,992 photos uploaded!

WunderBlogs® & News

Nearby

Air Quality

  Air Quality AQ Index Pollutant
Not available.

Snow Depth

Station Depth Elevation

Earthquake Activity

City Distance Mag. Time & Date
Minimum magnitude displayed is 2.5.

Coastal Water Temperatures

Place Temperature

Nearby Weather Stations